createdAt,value
2022-11-18T00:03:38.995Z,9.09
2022-11-18T00:08:38.205Z,9.06
2022-11-18T00:13:36.895Z,9
2022-11-18T00:18:37.136Z,8.93
2022-11-18T00:23:36.353Z,8.85
2022-11-18T00:28:36.026Z,8.78
2022-11-18T00:33:35.024Z,8.72
2022-11-18T00:38:34.159Z,8.68
2022-11-18T00:43:33.469Z,8.64
2022-11-18T00:48:33.202Z,8.63
2022-11-18T00:53:32.252Z,8.53
2022-11-18T00:58:31.273Z,8.46
2022-11-18T00:59:51.927Z,8.43
2022-11-18T01:04:51.701Z,8.43
2022-11-18T01:09:49.924Z,8.43
2022-11-18T01:14:49.184Z,8.45
2022-11-18T01:19:47.955Z,8.47
2022-11-18T01:24:47.440Z,8.52
2022-11-18T01:29:46.694Z,8.53
2022-11-18T01:34:46.039Z,8.54
2022-11-18T01:39:44.693Z,8.53
2022-11-18T01:44:43.706Z,8.53
2022-11-18T01:49:42.659Z,8.52
2022-11-18T01:54:42.415Z,8.58
2022-11-18T01:58:47.602Z,8.62
2022-11-18T02:03:47.619Z,8.68
2022-11-18T02:08:47.142Z,8.71
2022-11-18T02:13:47.070Z,8.72
2022-11-18T02:18:45.897Z,8.74
2022-11-18T02:23:44.638Z,8.72
2022-11-18T02:28:43.363Z,8.71
2022-11-18T02:33:42.801Z,8.71
2022-11-18T02:38:42.279Z,8.71
2022-11-18T02:43:41.496Z,8.72
2022-11-18T02:48:40.059Z,8.75
2022-11-18T02:53:38.907Z,8.77
2022-11-18T02:58:37.932Z,8.72
2022-11-18T03:03:37.570Z,8.68
2022-11-18T03:08:36.502Z,8.68
2022-11-18T03:13:36.492Z,8.68
2022-11-18T03:18:35.442Z,8.67
2022-11-18T03:23:34.692Z,8.64
2022-11-18T03:28:33.492Z,8.58
2022-11-18T03:33:33.360Z,8.51
2022-11-18T03:38:32.044Z,8.46
2022-11-18T03:43:32.071Z,8.43
2022-11-18T03:48:32.304Z,8.41
2022-11-18T03:53:31.919Z,8.39
2022-11-18T03:58:30.688Z,8.37
2022-11-18T04:03:29.265Z,8.35
2022-11-18T04:08:28.512Z,8.38
2022-11-18T04:13:27.481Z,8.42
2022-11-18T04:18:26.956Z,8.43
2022-11-18T04:23:26.030Z,8.41
2022-11-18T04:28:25.093Z,8.35
2022-11-18T04:33:23.923Z,8.3
2022-11-18T04:38:23.163Z,8.25
2022-11-18T04:43:22.983Z,8.21
2022-11-18T04:48:22.168Z,8.18
2022-11-18T04:53:21.686Z,8.16
2022-11-18T04:58:25.881Z,8.14
2022-11-18T05:03:25.258Z,8.14
2022-11-18T05:08:25.578Z,8.07
2022-11-18T05:13:23.547Z,7.99
2022-11-18T05:18:23.512Z,7.88
2022-11-18T05:23:23.166Z,7.79
2022-11-18T05:28:22.897Z,7.73
2022-11-18T05:33:22.401Z,7.66
2022-11-18T05:38:22.008Z,7.57
2022-11-18T05:43:21.717Z,7.51
2022-11-18T05:48:20.821Z,7.45
2022-11-18T05:53:20.228Z,7.42
2022-11-18T05:58:20.220Z,7.39
2022-11-18T05:59:40.517Z,7.38
2022-11-18T06:04:40.197Z,7.36
2022-11-18T06:09:38.764Z,7.34
2022-11-18T06:14:37.725Z,7.32
2022-11-18T06:19:36.887Z,7.31
2022-11-18T06:24:36.765Z,7.31
2022-11-18T06:29:35.254Z,7.31
2022-11-18T06:34:38.264Z,7.31
2022-11-18T06:39:33.133Z,7.32
2022-11-18T06:44:33.022Z,7.34
2022-11-18T06:49:31.961Z,7.36
2022-11-18T06:54:32.009Z,7.38
2022-11-18T06:59:08.642Z,7.41
2022-11-18T07:04:07.952Z,7.44
2022-11-18T07:09:07.083Z,7.47
2022-11-18T07:14:06.712Z,7.46
2022-11-18T07:19:06.465Z,7.46
2022-11-18T07:24:05.857Z,7.48
2022-11-18T07:29:04.744Z,7.5
2022-11-18T07:34:04.444Z,7.52
2022-11-18T07:39:02.980Z,7.55
2022-11-18T07:44:02.264Z,7.57
2022-11-18T07:49:00.907Z,7.59
2022-11-18T07:53:59.827Z,7.63
2022-11-18T07:58:48.510Z,7.67
2022-11-18T08:03:47.642Z,7.69
2022-11-18T08:08:46.155Z,7.73
2022-11-18T08:13:45.894Z,7.75
2022-11-18T08:18:44.901Z,7.78
2022-11-18T08:23:44.994Z,7.8
2022-11-18T08:28:43.718Z,7.83
2022-11-18T08:33:42.545Z,7.85
2022-11-18T08:38:41.678Z,7.88
2022-11-18T08:43:40.998Z,7.93
2022-11-18T08:48:39.960Z,7.97
2022-11-18T08:53:39.438Z,8.02
2022-11-18T08:58:39.357Z,8.07
2022-11-18T09:03:38.789Z,8.09
2022-11-18T09:08:37.742Z,8.1
2022-11-18T09:14:09.872Z,8.13
2022-11-18T09:18:36.733Z,8.14
2022-11-18T09:23:35.855Z,8.2
2022-11-18T09:28:34.928Z,8.26
2022-11-18T09:33:34.487Z,8.29
2022-11-18T09:38:33.504Z,8.32
2022-11-18T09:43:33.067Z,8.35
2022-11-18T09:48:32.000Z,8.39
2022-11-18T09:53:31.322Z,8.49
2022-11-18T09:58:30.231Z,8.53
2022-11-18T09:59:50.888Z,8.54
2022-11-18T10:04:49.772Z,8.6
2022-11-18T10:09:48.536Z,8.64
2022-11-18T10:14:48.072Z,8.72
2022-11-18T10:19:47.202Z,8.77
2022-11-18T10:24:46.533Z,8.8
2022-11-18T10:29:46.277Z,8.91
2022-11-18T10:34:45.574Z,9.08
2022-11-18T10:39:48.649Z,9.24
2022-11-18T10:44:45.061Z,9.31
2022-11-18T10:49:44.806Z,9.37
2022-11-18T10:54:43.379Z,9.35
2022-11-18T10:58:49.859Z,9.35
2022-11-18T11:03:49.289Z,9.47
2022-11-18T11:08:47.491Z,9.47
2022-11-18T11:13:47.625Z,9.56
2022-11-18T11:18:46.564Z,9.67
2022-11-18T11:23:47.086Z,9.81
2022-11-18T11:28:44.857Z,9.87
2022-11-18T11:33:45.160Z,9.89
2022-11-18T11:38:44.439Z,9.92
2022-11-18T11:43:42.601Z,9.97
2022-11-18T11:48:41.523Z,10.01
2022-11-18T11:53:40.447Z,9.97
2022-11-18T11:58:39.518Z,9.99
2022-11-18T12:03:39.057Z,10
2022-11-18T12:08:37.107Z,10.02
2022-11-18T12:13:35.954Z,10.03
2022-11-18T12:18:35.113Z,10.05
2022-11-18T12:23:34.288Z,10.03
2022-11-18T12:28:33.412Z,10.03
2022-11-18T12:33:33.552Z,10.18
2022-11-18T12:38:33.530Z,10.32
2022-11-18T12:43:32.982Z,10.36
2022-11-18T12:48:32.741Z,10.57
2022-11-18T12:53:31.169Z,10.81
2022-11-18T12:58:30.016Z,10.89
2022-11-18T13:03:29.553Z,11.15
2022-11-18T13:08:28.900Z,11.6
2022-11-18T13:13:29.282Z,11.53
2022-11-18T13:18:26.774Z,11.26
2022-11-18T13:23:25.546Z,10.97
2022-11-18T13:28:24.447Z,10.84
2022-11-18T13:33:23.644Z,11.34
2022-11-18T13:38:27.927Z,11.2
2022-11-18T13:43:21.314Z,10.93
2022-11-18T13:48:20.224Z,10.65
2022-11-18T13:53:19.107Z,10.37
2022-11-18T13:58:26.662Z,10.16
2022-11-18T14:03:26.052Z,10.05
2022-11-18T14:08:25.503Z,9.99
2022-11-18T14:13:24.713Z,9.99
2022-11-18T14:18:24.677Z,9.85
2022-11-18T14:23:24.034Z,9.78
2022-11-18T14:28:23.856Z,9.72
2022-11-18T14:33:23.726Z,9.72
2022-11-18T14:38:36.930Z,9.68
2022-11-18T14:43:21.657Z,9.64
2022-11-18T14:48:21.855Z,9.6
2022-11-18T14:53:20.970Z,9.59
2022-11-18T14:58:20.478Z,9.58
2022-11-18T14:59:41.019Z,9.57
2022-11-18T15:04:40.197Z,9.52
2022-11-18T15:09:39.779Z,9.47
2022-11-18T15:14:37.409Z,9.42
2022-11-18T15:19:36.393Z,9.39
2022-11-18T15:24:35.786Z,9.39
2022-11-18T15:29:34.820Z,9.41
2022-11-18T15:34:34.894Z,9.38
2022-11-18T15:39:32.552Z,9.38
2022-11-18T15:44:32.054Z,9.39
2022-11-18T15:49:31.467Z,9.39
2022-11-18T15:54:30.930Z,9.39
2022-11-18T15:59:09.061Z,9.38
2022-11-18T16:04:09.121Z,9.35
2022-11-18T16:09:07.899Z,9.38
2022-11-18T16:14:07.898Z,9.39
2022-11-18T16:19:06.225Z,9.43
2022-11-18T16:24:05.045Z,9.46
2022-11-18T16:29:04.201Z,9.45
2022-11-18T16:34:03.574Z,9.45
2022-11-18T16:39:03.219Z,9.42
2022-11-18T16:44:01.386Z,9.39
2022-11-18T16:49:00.248Z,9.39
2022-11-18T16:53:59.341Z,9.43
2022-11-18T16:58:49.688Z,9.47
2022-11-18T17:03:49.960Z,9.47
2022-11-18T17:08:48.496Z,9.47
2022-11-18T17:13:50.149Z,9.42
2022-11-18T17:18:47.004Z,9.38
2022-11-18T17:23:46.588Z,9.35
2022-11-18T17:28:44.659Z,9.34
2022-11-18T17:33:44.728Z,9.31
2022-11-18T17:38:43.308Z,9.28
2022-11-18T17:43:42.698Z,9.27
2022-11-18T17:48:41.837Z,9.24
2022-11-18T17:53:43.532Z,9.21
2022-11-18T17:58:28.546Z,9.16
2022-11-18T18:03:27.738Z,9.1
2022-11-18T18:08:26.815Z,9.05
2022-11-18T18:13:26.124Z,9.01
2022-11-18T18:18:25.662Z,8.96
2022-11-18T18:23:24.596Z,8.91
2022-11-18T18:28:23.691Z,8.88
2022-11-18T18:33:23.119Z,8.85
2022-11-18T18:38:22.125Z,8.85
2022-11-18T18:43:21.732Z,8.84
2022-11-18T18:48:20.518Z,8.84
2022-11-18T18:53:19.880Z,8.83
2022-11-18T18:58:19.490Z,8.81
2022-11-18T18:59:39.760Z,8.81
2022-11-18T19:04:38.775Z,8.79
2022-11-18T19:09:37.468Z,8.76
2022-11-18T19:14:36.857Z,8.74
2022-11-18T19:19:36.339Z,8.72
2022-11-18T19:29:33.956Z,8.64
2022-11-18T19:34:33.363Z,8.57
2022-11-18T19:39:32.492Z,8.51
2022-11-18T19:44:30.602Z,8.47
2022-11-18T19:49:29.461Z,8.42
2022-11-18T19:54:28.522Z,8.37
2022-11-18T19:58:47.954Z,8.31
2022-11-18T20:03:47.646Z,8.26
2022-11-18T20:08:45.666Z,8.25
2022-11-18T20:13:45.027Z,8.22
2022-11-18T20:18:44.255Z,8.21
2022-11-18T20:23:43.769Z,8.22
2022-11-18T20:28:42.848Z,8.24
2022-11-18T20:33:42.934Z,8.22
2022-11-18T20:38:41.678Z,8.22
2022-11-18T20:43:40.957Z,8.21
2022-11-18T20:48:39.901Z,8.18
2022-11-18T20:53:39.242Z,8.14
2022-11-18T20:58:38.797Z,8.09
2022-11-18T21:03:39.020Z,8.02
2022-11-18T21:08:38.029Z,7.95
2022-11-18T21:13:37.933Z,7.91
2022-11-18T21:18:35.589Z,7.87
2022-11-18T21:23:34.917Z,7.79
2022-11-18T21:28:33.775Z,7.74
2022-11-18T21:33:33.097Z,7.7
2022-11-18T21:38:32.821Z,7.68
2022-11-18T21:43:58.176Z,7.68
2022-11-18T21:48:30.147Z,7.68
2022-11-18T21:53:29.681Z,7.67
2022-11-18T21:58:28.741Z,7.68
2022-11-18T21:59:49.595Z,7.67
2022-11-18T22:04:48.373Z,7.7
2022-11-18T22:09:47.248Z,7.7
2022-11-18T22:14:46.113Z,7.69
2022-11-18T22:19:45.358Z,7.67
2022-11-18T22:24:43.564Z,7.66
2022-11-18T22:29:42.442Z,7.65
2022-11-18T22:34:41.503Z,7.66
2022-11-18T22:39:41.125Z,7.65
2022-11-18T22:44:40.048Z,7.62
2022-11-18T22:49:40.093Z,7.59
2022-11-18T22:54:40.155Z,7.58
2022-11-18T22:58:51.134Z,7.55
2022-11-18T23:00:21.652Z,7.53
2022-11-18T23:05:20.863Z,7.54
2022-11-18T23:10:21.243Z,7.53
2022-11-18T23:15:08.926Z,7.55
2022-11-18T23:20:08.108Z,7.55
2022-11-18T23:25:07.089Z,7.55
2022-11-18T23:30:06.593Z,7.55
2022-11-18T23:35:06.179Z,7.56
2022-11-18T23:40:03.865Z,7.56
2022-11-18T23:45:05.380Z,7.56
2022-11-18T23:50:02.043Z,7.54
2022-11-18T23:55:01.433Z,7.52
2022-11-18T23:59:21.829Z,7.48
